sensor_id;sensor_type;location;lat;lon;timestamp;temperature;humidity
9209;DHT22;4639;48.862;9.188;2024-03-22T00:01:05;11.40;99.90
9209;DHT22;4639;48.862;9.188;2024-03-22T00:03:31;11.30;99.90
9209;DHT22;4639;48.862;9.188;2024-03-22T00:05:57;11.30;99.90
9209;DHT22;4639;48.862;9.188;2024-03-22T00:08:22;11.30;99.90
9209;DHT22;4639;48.862;9.188;2024-03-22T00:10:48;11.30;99.90
9209;DHT22;4639;48.862;9.188;2024-03-22T00:13:14;11.20;99.90
9209;DHT22;4639;48.862;9.188;2024-03-22T00:15:39;11.20;99.90
9209;DHT22;4639;48.862;9.188;2024-03-22T00:18:05;11.10;99.90
9209;DHT22;4639;48.862;9.188;2024-03-22T00:20:30;11.10;99.90
9209;DHT22;4639;48.862;9.188;2024-03-22T00:22:56;11.00;99.90
9209;DHT22;4639;48.862;9.188;2024-03-22T00:25:21;11.00;99.90
9209;DHT22;4639;48.862;9.188;2024-03-22T00:27:47;11.10;99.90
9209;DHT22;4639;48.862;9.188;2024-03-22T00:30:13;11.10;99.90
9209;DHT22;4639;48.862;9.188;2024-03-22T00:32:40;11.10;99.90
9209;DHT22;4639;48.862;9.188;2024-03-22T00:35:06;11.10;99.90
9209;DHT22;4639;48.862;9.188;2024-03-22T00:37:32;11.00;99.90
9209;DHT22;4639;48.862;9.188;2024-03-22T00:39:57;10.90;99.90
9209;DHT22;4639;48.862;9.188;2024-03-22T00:42:23;10.80;99.90
9209;DHT22;4639;48.862;9.188;2024-03-22T00:44:48;10.80;99.90
9209;DHT22;4639;48.862;9.188;2024-03-22T00:47:14;10.80;99.90
9209;DHT22;4639;48.862;9.188;2024-03-22T00:49:39;10.70;99.90
9209;DHT22;4639;48.862;9.188;2024-03-22T00:52:05;10.60;99.90
9209;DHT22;4639;48.862;9.188;2024-03-22T00:54:30;10.50;99.90
9209;DHT22;4639;48.862;9.188;2024-03-22T00:56:56;10.70;99.90
9209;DHT22;4639;48.862;9.188;2024-03-22T00:59:22;10.60;99.90
9209;DHT22;4639;48.862;9.188;2024-03-22T01:01:48;10.60;99.90
9209;DHT22;4639;48.862;9.188;2024-03-22T01:04:13;10.50;99.90
9209;DHT22;4639;48.862;9.188;2024-03-22T01:06:39;10.50;99.90
9209;DHT22;4639;48.862;9.188;2024-03-22T01:09:05;10.50;99.90
9209;DHT22;4639;48.862;9.188;2024-03-22T01:11:31;10.50;99.90
9209;DHT22;4639;48.862;9.188;2024-03-22T01:13:57;10.60;99.90
9209;DHT22;4639;48.862;9.188;2024-03-22T01:16:22;10.30;99.90
9209;DHT22;4639;48.862;9.188;2024-03-22T01:18:48;10.30;99.90
9209;DHT22;4639;48.862;9.188;2024-03-22T01:21:14;10.30;99.90
9209;DHT22;4639;48.862;9.188;2024-03-22T01:23:39;10.30;99.90
9209;DHT22;4639;48.862;9.188;2024-03-22T01:26:05;10.30;99.90
9209;DHT22;4639;48.862;9.188;2024-03-22T01:28:30;10.20;99.90
9209;DHT22;4639;48.862;9.188;2024-03-22T01:30:56;10.20;99.90
9209;DHT22;4639;48.862;9.188;2024-03-22T01:33:21;10.10;99.90
9209;DHT22;4639;48.862;9.188;2024-03-22T01:35:47;10.00;99.90
9209;DHT22;4639;48.862;9.188;2024-03-22T01:38:12;10.00;99.90
9209;DHT22;4639;48.862;9.188;2024-03-22T01:40:38;10.00;99.90
9209;DHT22;4639;48.862;9.188;2024-03-22T01:43:03;9.90;99.90
9209;DHT22;4639;48.862;9.188;2024-03-22T01:45:32;9.80;99.90
9209;DHT22;4639;48.862;9.188;2024-03-22T01:47:58;9.70;99.90
9209;DHT22;4639;48.862;9.188;2024-03-22T01:50:25;9.70;99.90
9209;DHT22;4639;48.862;9.188;2024-03-22T01:52:51;9.60;99.90
9209;DHT22;4639;48.862;9.188;2024-03-22T01:55:17;9.50;99.90
9209;DHT22;4639;48.862;9.188;2024-03-22T01:57:43;9.50;99.90
9209;DHT22;4639;48.862;9.188;2024-03-22T02:00:09;9.50;99.90
9209;DHT22;4639;48.862;9.188;2024-03-22T02:02:35;9.50;99.90
9209;DHT22;4639;48.862;9.188;2024-03-22T02:05:15;9.50;99.90
9209;DHT22;4639;48.862;9.188;2024-03-22T02:07:41;9.50;99.90
9209;DHT22;4639;48.862;9.188;2024-03-22T02:10:08;9.40;99.90
9209;DHT22;4639;48.862;9.188;2024-03-22T02:12:37;9.40;99.90
9209;DHT22;4639;48.862;9.188;2024-03-22T02:15:02;9.30;99.90
9209;DHT22;4639;48.862;9.188;2024-03-22T02:17:28;9.30;99.90
9209;DHT22;4639;48.862;9.188;2024-03-22T02:19:54;9.30;99.90
9209;DHT22;4639;48.862;9.188;2024-03-22T02:22:19;9.30;99.90
9209;DHT22;4639;48.862;9.188;2024-03-22T02:24:45;9.20;99.90
9209;DHT22;4639;48.862;9.188;2024-03-22T02:27:10;9.30;99.90
9209;DHT22;4639;48.862;9.188;2024-03-22T02:29:36;9.30;99.90
9209;DHT22;4639;48.862;9.188;2024-03-22T02:32:01;9.30;99.90
9209;DHT22;4639;48.862;9.188;2024-03-22T02:34:28;9.30;99.90
9209;DHT22;4639;48.862;9.188;2024-03-22T02:36:54;9.30;99.90
9209;DHT22;4639;48.862;9.188;2024-03-22T02:39:19;9.20;99.90
9209;DHT22;4639;48.862;9.188;2024-03-22T02:41:45;9.20;99.90
9209;DHT22;4639;48.862;9.188;2024-03-22T02:44:11;9.30;99.90
9209;DHT22;4639;48.862;9.188;2024-03-22T02:46:36;9.20;99.90
9209;DHT22;4639;48.862;9.188;2024-03-22T02:49:02;9.20;99.90
9209;DHT22;4639;48.862;9.188;2024-03-22T02:51:27;9.20;99.90
9209;DHT22;4639;48.862;9.188;2024-03-22T02:53:53;9.10;99.90
9209;DHT22;4639;48.862;9.188;2024-03-22T02:56:18;9.10;99.90
9209;DHT22;4639;48.862;9.188;2024-03-22T02:58:44;9.00;99.90
9209;DHT22;4639;48.862;9.188;2024-03-22T03:01:09;9.00;99.90
9209;DHT22;4639;48.862;9.188;2024-03-22T03:03:35;8.90;99.90
9209;DHT22;4639;48.862;9.188;2024-03-22T03:06:00;8.90;99.90
9209;DHT22;4639;48.862;9.188;2024-03-22T03:08:26;8.90;99.90
9209;DHT22;4639;48.862;9.188;2024-03-22T03:10:52;8.90;99.90
9209;DHT22;4639;48.862;9.188;2024-03-22T03:13:18;9.00;99.90
9209;DHT22;4639;48.862;9.188;2024-03-22T03:15:43;9.00;99.90
9209;DHT22;4639;48.862;9.188;2024-03-22T03:18:09;9.00;99.90
9209;DHT22;4639;48.862;9.188;2024-03-22T03:20:34;9.10;99.90
9209;DHT22;4639;48.862;9.188;2024-03-22T03:23:00;9.00;99.90
9209;DHT22;4639;48.862;9.188;2024-03-22T03:25:27;9.10;99.90
9209;DHT22;4639;48.862;9.188;2024-03-22T03:27:52;9.20;99.90
9209;DHT22;4639;48.862;9.188;2024-03-22T03:30:18;9.30;99.90
9209;DHT22;4639;48.862;9.188;2024-03-22T03:32:44;9.00;99.90
9209;DHT22;4639;48.862;9.188;2024-03-22T03:35:09;8.90;99.90
9209;DHT22;4639;48.862;9.188;2024-03-22T03:37:35;9.00;99.90
9209;DHT22;4639;48.862;9.188;2024-03-22T03:40:01;9.00;99.90
9209;DHT22;4639;48.862;9.188;2024-03-22T03:42:26;9.00;99.90
9209;DHT22;4639;48.862;9.188;2024-03-22T03:44:52;9.10;99.90
9209;DHT22;4639;48.862;9.188;2024-03-22T03:47:17;9.10;99.90
9209;DHT22;4639;48.862;9.188;2024-03-22T03:49:45;9.10;99.90
9209;DHT22;4639;48.862;9.188;2024-03-22T03:52:11;9.20;99.90
9209;DHT22;4639;48.862;9.188;2024-03-22T03:54:37;9.20;99.90
9209;DHT22;4639;48.862;9.188;2024-03-22T03:57:05;9.20;99.90
9209;DHT22;4639;48.862;9.188;2024-03-22T03:59:30;9.20;99.90
9209;DHT22;4639;48.862;9.188;2024-03-22T04:01:56;9.20;99.90
9209;DHT22;4639;48.862;9.188;2024-03-22T04:04:21;9.10;99.90
9209;DHT22;4639;48.862;9.188;2024-03-22T04:06:47;9.10;99.90
9209;DHT22;4639;48.862;9.188;2024-03-22T04:09:13;9.20;99.90
9209;DHT22;4639;48.862;9.188;2024-03-22T04:11:38;9.10;99.90
9209;DHT22;4639;48.862;9.188;2024-03-22T04:14:07;9.10;99.90
9209;DHT22;4639;48.862;9.188;2024-03-22T04:16:33;9.00;99.90
9209;DHT22;4639;48.862;9.188;2024-03-22T04:19:01;9.00;99.90
9209;DHT22;4639;48.862;9.188;2024-03-22T04:21:27;9.00;99.90
9209;DHT22;4639;48.862;9.188;2024-03-22T04:23:52;9.00;99.90
9209;DHT22;4639;48.862;9.188;2024-03-22T04:26:18;9.00;99.90
9209;DHT22;4639;48.862;9.188;2024-03-22T04:28:43;9.10;99.90
9209;DHT22;4639;48.862;9.188;2024-03-22T04:31:09;9.00;99.90
9209;DHT22;4639;48.862;9.188;2024-03-22T04:33:36;9.00;99.90
9209;DHT22;4639;48.862;9.188;2024-03-22T04:36:02;9.10;99.90
9209;DHT22;4639;48.862;9.188;2024-03-22T04:38:29;9.10;99.90
9209;DHT22;4639;48.862;9.188;2024-03-22T04:40:55;9.10;99.90
9209;DHT22;4639;48.862;9.188;2024-03-22T04:43:24;9.20;99.90
9209;DHT22;4639;48.862;9.188;2024-03-22T04:45:50;9.20;99.90
9209;DHT22;4639;48.862;9.188;2024-03-22T04:48:23;9.20;99.90
9209;DHT22;4639;48.862;9.188;2024-03-22T04:50:50;9.20;99.90
9209;DHT22;4639;48.862;9.188;2024-03-22T04:53:17;9.20;99.90
9209;DHT22;4639;48.862;9.188;2024-03-22T04:55:43;9.30;99.90
9209;DHT22;4639;48.862;9.188;2024-03-22T04:58:17;9.30;99.90
9209;DHT22;4639;48.862;9.188;2024-03-22T05:00:44;9.30;99.90
9209;DHT22;4639;48.862;9.188;2024-03-22T05:03:10;9.20;99.90
9209;DHT22;4639;48.862;9.188;2024-03-22T05:05:36;9.10;99.90
9209;DHT22;4639;48.862;9.188;2024-03-22T05:08:02;9.00;99.90
9209;DHT22;4639;48.862;9.188;2024-03-22T05:10:29;9.00;99.90
9209;DHT22;4639;48.862;9.188;2024-03-22T05:12:55;8.90;99.90
9209;DHT22;4639;48.862;9.188;2024-03-22T05:15:21;9.00;99.90
9209;DHT22;4639;48.862;9.188;2024-03-22T05:17:46;9.00;99.90
9209;DHT22;4639;48.862;9.188;2024-03-22T05:20:12;9.00;99.90
9209;DHT22;4639;48.862;9.188;2024-03-22T05:22:38;9.00;99.90
9209;DHT22;4639;48.862;9.188;2024-03-22T05:25:04;8.90;99.90
9209;DHT22;4639;48.862;9.188;2024-03-22T05:27:31;8.80;99.90
9209;DHT22;4639;48.862;9.188;2024-03-22T05:29:57;8.80;99.90
9209;DHT22;4639;48.862;9.188;2024-03-22T05:32:23;8.80;99.90
9209;DHT22;4639;48.862;9.188;2024-03-22T05:34:49;8.90;99.90
9209;DHT22;4639;48.862;9.188;2024-03-22T05:37:15;8.80;99.90
9209;DHT22;4639;48.862;9.188;2024-03-22T05:39:40;8.80;99.90
9209;DHT22;4639;48.862;9.188;2024-03-22T05:42:07;8.70;99.90
9209;DHT22;4639;48.862;9.188;2024-03-22T05:44:33;8.70;99.90
9209;DHT22;4639;48.862;9.188;2024-03-22T05:46:59;8.80;99.90
9209;DHT22;4639;48.862;9.188;2024-03-22T05:49:25;8.80;99.90
9209;DHT22;4639;48.862;9.188;2024-03-22T05:51:51;8.80;99.90
9209;DHT22;4639;48.862;9.188;2024-03-22T05:54:16;8.90;99.90
9209;DHT22;4639;48.862;9.188;2024-03-22T05:56:42;8.90;99.90
9209;DHT22;4639;48.862;9.188;2024-03-22T05:59:08;9.00;99.90
9209;DHT22;4639;48.862;9.188;2024-03-22T06:01:33;9.00;99.90
9209;DHT22;4639;48.862;9.188;2024-03-22T06:03:59;9.00;99.90
9209;DHT22;4639;48.862;9.188;2024-03-22T06:06:25;9.10;99.90
9209;DHT22;4639;48.862;9.188;2024-03-22T06:08:54;9.10;99.90
9209;DHT22;4639;48.862;9.188;2024-03-22T06:11:22;9.10;99.90
9209;DHT22;4639;48.862;9.188;2024-03-22T06:13:48;9.10;99.90
9209;DHT22;4639;48.862;9.188;2024-03-22T06:16:14;9.10;99.90
9209;DHT22;4639;48.862;9.188;2024-03-22T06:18:39;9.20;99.90
9209;DHT22;4639;48.862;9.188;2024-03-22T06:21:06;9.20;99.90
9209;DHT22;4639;48.862;9.188;2024-03-22T06:23:41;9.20;99.90
9209;DHT22;4639;48.862;9.188;2024-03-22T06:26:09;9.30;99.90
9209;DHT22;4639;48.862;9.188;2024-03-22T06:28:35;9.40;99.90
9209;DHT22;4639;48.862;9.188;2024-03-22T06:31:01;9.50;99.90
9209;DHT22;4639;48.862;9.188;2024-03-22T06:33:27;9.60;99.90
9209;DHT22;4639;48.862;9.188;2024-03-22T06:35:52;9.70;99.90
9209;DHT22;4639;48.862;9.188;2024-03-22T06:38:18;9.80;99.90
9209;DHT22;4639;48.862;9.188;2024-03-22T06:40:44;9.90;99.90
9209;DHT22;4639;48.862;9.188;2024-03-22T06:43:10;10.10;99.90
9209;DHT22;4639;48.862;9.188;2024-03-22T06:45:36;10.30;99.90
9209;DHT22;4639;48.862;9.188;2024-03-22T06:48:01;10.50;99.90
9209;DHT22;4639;48.862;9.188;2024-03-22T06:50:27;10.70;99.90
9209;DHT22;4639;48.862;9.188;2024-03-22T06:52:54;10.90;99.90
9209;DHT22;4639;48.862;9.188;2024-03-22T06:55:22;11.00;99.90
9209;DHT22;4639;48.862;9.188;2024-03-22T06:57:49;11.10;99.90
9209;DHT22;4639;48.862;9.188;2024-03-22T07:00:15;11.20;99.90
9209;DHT22;4639;48.862;9.188;2024-03-22T07:02:41;11.30;99.90
9209;DHT22;4639;48.862;9.188;2024-03-22T07:05:10;11.50;99.90
9209;DHT22;4639;48.862;9.188;2024-03-22T07:07:37;11.40;99.90
9209;DHT22;4639;48.862;9.188;2024-03-22T07:10:03;11.30;99.90
9209;DHT22;4639;48.862;9.188;2024-03-22T07:12:31;11.20;99.90
9209;DHT22;4639;48.862;9.188;2024-03-22T07:14:59;11.30;99.90
9209;DHT22;4639;48.862;9.188;2024-03-22T07:17:24;11.30;99.90
9209;DHT22;4639;48.862;9.188;2024-03-22T07:19:51;11.30;99.90
9209;DHT22;4639;48.862;9.188;2024-03-22T07:22:17;11.50;99.90
9209;DHT22;4639;48.862;9.188;2024-03-22T07:24:43;11.70;99.90
9209;DHT22;4639;48.862;9.188;2024-03-22T07:27:08;12.10;99.90
9209;DHT22;4639;48.862;9.188;2024-03-22T07:29:35;12.30;99.90
9209;DHT22;4639;48.862;9.188;2024-03-22T07:32:00;12.60;99.90
9209;DHT22;4639;48.862;9.188;2024-03-22T07:34:26;12.70;99.90
9209;DHT22;4639;48.862;9.188;2024-03-22T07:36:51;12.90;99.90
9209;DHT22;4639;48.862;9.188;2024-03-22T07:39:17;13.20;99.90
9209;DHT22;4639;48.862;9.188;2024-03-22T07:41:43;13.20;99.90
9209;DHT22;4639;48.862;9.188;2024-03-22T07:44:08;13.10;99.90
9209;DHT22;4639;48.862;9.188;2024-03-22T07:46:34;13.00;99.90
9209;DHT22;4639;48.862;9.188;2024-03-22T07:48:59;13.00;99.90
9209;DHT22;4639;48.862;9.188;2024-03-22T07:51:25;12.90;99.90
9209;DHT22;4639;48.862;9.188;2024-03-22T07:53:51;13.20;99.90
9209;DHT22;4639;48.862;9.188;2024-03-22T07:56:17;13.50;99.90
9209;DHT22;4639;48.862;9.188;2024-03-22T07:58:43;13.90;99.90
9209;DHT22;4639;48.862;9.188;2024-03-22T08:01:09;14.00;99.90
9209;DHT22;4639;48.862;9.188;2024-03-22T08:03:34;14.20;99.90
9209;DHT22;4639;48.862;9.188;2024-03-22T08:06:00;14.40;99.90
9209;DHT22;4639;48.862;9.188;2024-03-22T08:08:25;14.50;99.90
9209;DHT22;4639;48.862;9.188;2024-03-22T08:10:51;14.80;99.90
9209;DHT22;4639;48.862;9.188;2024-03-22T08:13:17;15.10;99.90
9209;DHT22;4639;48.862;9.188;2024-03-22T08:15:43;15.30;99.90
9209;DHT22;4639;48.862;9.188;2024-03-22T08:18:11;15.60;99.90
9209;DHT22;4639;48.862;9.188;2024-03-22T08:20:36;15.90;99.90
9209;DHT22;4639;48.862;9.188;2024-03-22T08:23:04;16.10;99.90
9209;DHT22;4639;48.862;9.188;2024-03-22T08:25:30;16.20;99.90
9209;DHT22;4639;48.862;9.188;2024-03-22T08:27:56;16.40;99.90
9209;DHT22;4639;48.862;9.188;2024-03-22T08:30:22;16.60;99.90
9209;DHT22;4639;48.862;9.188;2024-03-22T08:32:48;17.00;99.90
9209;DHT22;4639;48.862;9.188;2024-03-22T08:35:13;17.50;99.90
9209;DHT22;4639;48.862;9.188;2024-03-22T08:37:39;18.00;99.90
9209;DHT22;4639;48.862;9.188;2024-03-22T08:40:05;18.60;99.90
9209;DHT22;4639;48.862;9.188;2024-03-22T08:42:31;18.70;99.90
9209;DHT22;4639;48.862;9.188;2024-03-22T08:44:57;18.70;99.90
9209;DHT22;4639;48.862;9.188;2024-03-22T08:47:23;18.40;99.90
9209;DHT22;4639;48.862;9.188;2024-03-22T08:49:49;17.90;99.90
9209;DHT22;4639;48.862;9.188;2024-03-22T08:52:14;17.60;99.90
9209;DHT22;4639;48.862;9.188;2024-03-22T08:54:40;17.40;99.90
9209;DHT22;4639;48.862;9.188;2024-03-22T08:57:06;17.10;99.90
9209;DHT22;4639;48.862;9.188;2024-03-22T08:59:32;17.00;99.90
9209;DHT22;4639;48.862;9.188;2024-03-22T09:01:58;17.00;99.90
9209;DHT22;4639;48.862;9.188;2024-03-22T09:04:24;17.10;99.90
9209;DHT22;4639;48.862;9.188;2024-03-22T09:06:50;17.40;99.90
9209;DHT22;4639;48.862;9.188;2024-03-22T09:09:16;17.20;99.90
9209;DHT22;4639;48.862;9.188;2024-03-22T09:11:42;17.20;99.90
9209;DHT22;4639;48.862;9.188;2024-03-22T09:14:08;17.30;99.90
9209;DHT22;4639;48.862;9.188;2024-03-22T09:16:33;17.40;99.90
9209;DHT22;4639;48.862;9.188;2024-03-22T09:18:59;17.50;99.90
9209;DHT22;4639;48.862;9.188;2024-03-22T09:21:25;17.40;99.90
9209;DHT22;4639;48.862;9.188;2024-03-22T09:23:50;17.50;99.90
9209;DHT22;4639;48.862;9.188;2024-03-22T09:26:16;17.80;99.90
9209;DHT22;4639;48.862;9.188;2024-03-22T09:28:41;18.20;99.90
9209;DHT22;4639;48.862;9.188;2024-03-22T09:31:08;18.50;99.90
9209;DHT22;4639;48.862;9.188;2024-03-22T09:33:34;18.90;99.90
9209;DHT22;4639;48.862;9.188;2024-03-22T09:35:59;19.20;99.90
9209;DHT22;4639;48.862;9.188;2024-03-22T09:38:25;19.50;99.90
9209;DHT22;4639;48.862;9.188;2024-03-22T09:40:51;19.70;99.90
9209;DHT22;4639;48.862;9.188;2024-03-22T09:43:20;19.80;99.90
9209;DHT22;4639;48.862;9.188;2024-03-22T09:45:50;19.80;99.90
9209;DHT22;4639;48.862;9.188;2024-03-22T09:48:19;20.00;99.90
9209;DHT22;4639;48.862;9.188;2024-03-22T09:50:49;20.40;99.90
9209;DHT22;4639;48.862;9.188;2024-03-22T09:53:19;20.40;99.90
9209;DHT22;4639;48.862;9.188;2024-03-22T09:55:48;20.30;99.90
9209;DHT22;4639;48.862;9.188;2024-03-22T09:58:14;20.20;99.90
9209;DHT22;4639;48.862;9.188;2024-03-22T10:00:39;20.60;99.90
9209;DHT22;4639;48.862;9.188;2024-03-22T10:03:06;20.90;99.90
9209;DHT22;4639;48.862;9.188;2024-03-22T10:05:33;20.90;99.90
9209;DHT22;4639;48.862;9.188;2024-03-22T10:08:02;20.30;99.90
9209;DHT22;4639;48.862;9.188;2024-03-22T10:10:28;19.90;99.90
9209;DHT22;4639;48.862;9.188;2024-03-22T10:12:53;19.60;99.90
9209;DHT22;4639;48.862;9.188;2024-03-22T10:15:23;19.40;99.90
9209;DHT22;4639;48.862;9.188;2024-03-22T10:17:49;19.30;99.90
9209;DHT22;4639;48.862;9.188;2024-03-22T10:20:15;19.30;99.90
9209;DHT22;4639;48.862;9.188;2024-03-22T10:22:56;19.30;99.90
9209;DHT22;4639;48.862;9.188;2024-03-22T10:25:23;19.40;99.90
9209;DHT22;4639;48.862;9.188;2024-03-22T10:27:49;19.50;99.90
9209;DHT22;4639;48.862;9.188;2024-03-22T10:30:16;19.50;99.90
9209;DHT22;4639;48.862;9.188;2024-03-22T10:32:42;19.50;99.90
9209;DHT22;4639;48.862;9.188;2024-03-22T10:35:12;19.90;99.90
9209;DHT22;4639;48.862;9.188;2024-03-22T10:37:39;20.20;99.90
9209;DHT22;4639;48.862;9.188;2024-03-22T10:40:05;20.10;99.90
9209;DHT22;4639;48.862;9.188;2024-03-22T10:42:35;20.10;99.90
9209;DHT22;4639;48.862;9.188;2024-03-22T10:45:04;20.30;99.90
9209;DHT22;4639;48.862;9.188;2024-03-22T10:47:31;20.70;99.90
9209;DHT22;4639;48.862;9.188;2024-03-22T10:50:08;21.10;99.90
9209;DHT22;4639;48.862;9.188;2024-03-22T10:52:48;21.40;99.90
9209;DHT22;4639;48.862;9.188;2024-03-22T10:55:32;21.70;99.90
9209;DHT22;4639;48.862;9.188;2024-03-22T10:58:01;21.40;99.90
9209;DHT22;4639;48.862;9.188;2024-03-22T11:00:28;21.30;99.90
9209;DHT22;4639;48.862;9.188;2024-03-22T11:02:55;21.60;99.90
9209;DHT22;4639;48.862;9.188;2024-03-22T11:05:21;21.70;99.90
9209;DHT22;4639;48.862;9.188;2024-03-22T11:07:47;21.50;99.90
9209;DHT22;4639;48.862;9.188;2024-03-22T11:10:13;20.80;99.90
9209;DHT22;4639;48.862;9.188;2024-03-22T11:12:42;20.40;99.90
9209;DHT22;4639;48.862;9.188;2024-03-22T11:15:10;20.30;99.90
9209;DHT22;4639;48.862;9.188;2024-03-22T11:17:37;20.30;99.90
9209;DHT22;4639;48.862;9.188;2024-03-22T11:20:06;20.20;99.90
9209;DHT22;4639;48.862;9.188;2024-03-22T11:22:34;20.40;99.90
9209;DHT22;4639;48.862;9.188;2024-03-22T11:25:00;20.40;99.90
9209;DHT22;4639;48.862;9.188;2024-03-22T11:27:25;20.50;99.90
9209;DHT22;4639;48.862;9.188;2024-03-22T11:29:53;20.70;99.90
9209;DHT22;4639;48.862;9.188;2024-03-22T11:32:20;20.80;99.90
9209;DHT22;4639;48.862;9.188;2024-03-22T11:34:46;21.00;99.90
9209;DHT22;4639;48.862;9.188;2024-03-22T11:37:12;21.00;99.90
9209;DHT22;4639;48.862;9.188;2024-03-22T11:39:41;21.10;99.90
9209;DHT22;4639;48.862;9.188;2024-03-22T11:42:08;21.10;99.90
9209;DHT22;4639;48.862;9.188;2024-03-22T11:44:38;21.00;99.90
9209;DHT22;4639;48.862;9.188;2024-03-22T11:47:08;20.90;99.90
9209;DHT22;4639;48.862;9.188;2024-03-22T11:49:34;20.60;99.90
9209;DHT22;4639;48.862;9.188;2024-03-22T11:52:03;20.60;99.90
9209;DHT22;4639;48.862;9.188;2024-03-22T11:54:29;20.70;99.90
9209;DHT22;4639;48.862;9.188;2024-03-22T11:56:59;20.90;99.90
9209;DHT22;4639;48.862;9.188;2024-03-22T11:59:24;20.80;99.90
9209;DHT22;4639;48.862;9.188;2024-03-22T12:01:50;20.40;99.90
9209;DHT22;4639;48.862;9.188;2024-03-22T12:04:16;20.10;99.90
9209;DHT22;4639;48.862;9.188;2024-03-22T12:06:45;19.90;99.90
9209;DHT22;4639;48.862;9.188;2024-03-22T12:09:11;19.90;99.90
9209;DHT22;4639;48.862;9.188;2024-03-22T12:11:39;20.20;99.90
9209;DHT22;4639;48.862;9.188;2024-03-22T12:14:05;20.10;99.90
9209;DHT22;4639;48.862;9.188;2024-03-22T12:16:31;20.00;99.90
9209;DHT22;4639;48.862;9.188;2024-03-22T12:18:57;19.90;99.90
9209;DHT22;4639;48.862;9.188;2024-03-22T12:21:26;19.90;99.90
9209;DHT22;4639;48.862;9.188;2024-03-22T12:23:52;19.90;99.90
9209;DHT22;4639;48.862;9.188;2024-03-22T12:26:18;19.90;99.90
9209;DHT22;4639;48.862;9.188;2024-03-22T12:28:46;20.10;99.90
9209;DHT22;4639;48.862;9.188;2024-03-22T12:31:12;20.20;99.90
9209;DHT22;4639;48.862;9.188;2024-03-22T12:33:37;20.40;99.90
9209;DHT22;4639;48.862;9.188;2024-03-22T12:36:04;20.50;99.90
9209;DHT22;4639;48.862;9.188;2024-03-22T12:38:29;20.70;99.90
9209;DHT22;4639;48.862;9.188;2024-03-22T12:40:55;20.60;99.90
9209;DHT22;4639;48.862;9.188;2024-03-22T12:43:21;20.70;99.90
9209;DHT22;4639;48.862;9.188;2024-03-22T12:45:47;21.00;99.90
9209;DHT22;4639;48.862;9.188;2024-03-22T12:48:15;20.90;99.90
9209;DHT22;4639;48.862;9.188;2024-03-22T12:50:41;20.50;99.90
9209;DHT22;4639;48.862;9.188;2024-03-22T12:53:06;20.50;99.90
9209;DHT22;4639;48.862;9.188;2024-03-22T12:55:32;20.50;99.90
9209;DHT22;4639;48.862;9.188;2024-03-22T12:58:00;20.50;99.90
9209;DHT22;4639;48.862;9.188;2024-03-22T13:00:26;20.50;99.90
9209;DHT22;4639;48.862;9.188;2024-03-22T13:02:52;20.50;99.90
9209;DHT22;4639;48.862;9.188;2024-03-22T13:05:20;20.60;99.90
9209;DHT22;4639;48.862;9.188;2024-03-22T13:07:46;20.60;99.90
9209;DHT22;4639;48.862;9.188;2024-03-22T13:10:11;20.60;99.90
9209;DHT22;4639;48.862;9.188;2024-03-22T13:12:37;20.40;99.90
9209;DHT22;4639;48.862;9.188;2024-03-22T13:15:03;20.40;99.90
9209;DHT22;4639;48.862;9.188;2024-03-22T13:17:29;20.20;99.90
9209;DHT22;4639;48.862;9.188;2024-03-22T13:19:57;20.10;99.90
9209;DHT22;4639;48.862;9.188;2024-03-22T13:22:23;20.20;99.90
9209;DHT22;4639;48.862;9.188;2024-03-22T13:24:49;20.10;99.90
9209;DHT22;4639;48.862;9.188;2024-03-22T13:27:16;20.00;99.90
9209;DHT22;4639;48.862;9.188;2024-03-22T13:29:42;20.00;99.90
9209;DHT22;4639;48.862;9.188;2024-03-22T13:32:07;20.00;99.90
9209;DHT22;4639;48.862;9.188;2024-03-22T13:34:37;20.00;99.90
9209;DHT22;4639;48.862;9.188;2024-03-22T13:37:03;20.10;99.90
9209;DHT22;4639;48.862;9.188;2024-03-22T13:39:28;20.30;99.90
9209;DHT22;4639;48.862;9.188;2024-03-22T13:41:57;20.20;99.90
9209;DHT22;4639;48.862;9.188;2024-03-22T13:44:23;20.20;99.90
9209;DHT22;4639;48.862;9.188;2024-03-22T13:46:52;20.20;99.90
9209;DHT22;4639;48.862;9.188;2024-03-22T13:49:18;20.10;99.90
9209;DHT22;4639;48.862;9.188;2024-03-22T13:51:47;19.90;99.90
9209;DHT22;4639;48.862;9.188;2024-03-22T13:54:13;19.90;99.90
9209;DHT22;4639;48.862;9.188;2024-03-22T13:56:39;20.00;99.90
9209;DHT22;4639;48.862;9.188;2024-03-22T13:59:05;20.10;99.90
9209;DHT22;4639;48.862;9.188;2024-03-22T14:01:32;20.20;99.90
9209;DHT22;4639;48.862;9.188;2024-03-22T14:03:57;20.20;99.90
9209;DHT22;4639;48.862;9.188;2024-03-22T14:06:23;20.10;99.90
9209;DHT22;4639;48.862;9.188;2024-03-22T14:08:48;20.00;99.90
9209;DHT22;4639;48.862;9.188;2024-03-22T14:11:14;19.80;99.90
9209;DHT22;4639;48.862;9.188;2024-03-22T14:13:39;19.80;99.90
9209;DHT22;4639;48.862;9.188;2024-03-22T14:16:05;19.80;99.90
9209;DHT22;4639;48.862;9.188;2024-03-22T14:18:33;19.70;99.90
9209;DHT22;4639;48.862;9.188;2024-03-22T14:20:58;19.60;99.90
9209;DHT22;4639;48.862;9.188;2024-03-22T14:23:24;19.60;99.90
9209;DHT22;4639;48.862;9.188;2024-03-22T14:25:49;19.50;99.90
9209;DHT22;4639;48.862;9.188;2024-03-22T14:28:16;19.40;99.90
9209;DHT22;4639;48.862;9.188;2024-03-22T14:30:41;19.30;99.90
9209;DHT22;4639;48.862;9.188;2024-03-22T14:33:07;19.20;99.90
9209;DHT22;4639;48.862;9.188;2024-03-22T14:35:32;19.20;99.90
9209;DHT22;4639;48.862;9.188;2024-03-22T14:37:58;19.20;99.90
9209;DHT22;4639;48.862;9.188;2024-03-22T14:40:23;19.20;99.90
9209;DHT22;4639;48.862;9.188;2024-03-22T14:42:49;19.20;99.90
9209;DHT22;4639;48.862;9.188;2024-03-22T14:45:14;19.20;99.90
9209;DHT22;4639;48.862;9.188;2024-03-22T14:47:46;19.20;99.90
9209;DHT22;4639;48.862;9.188;2024-03-22T14:50:11;19.10;99.90
9209;DHT22;4639;48.862;9.188;2024-03-22T14:52:37;19.00;99.90
9209;DHT22;4639;48.862;9.188;2024-03-22T14:55:03;19.10;99.90
9209;DHT22;4639;48.862;9.188;2024-03-22T14:57:29;19.10;99.90
9209;DHT22;4639;48.862;9.188;2024-03-22T14:59:54;19.10;99.90
9209;DHT22;4639;48.862;9.188;2024-03-22T15:02:20;19.20;99.90
9209;DHT22;4639;48.862;9.188;2024-03-22T15:04:46;19.00;99.90
9209;DHT22;4639;48.862;9.188;2024-03-22T15:07:12;19.20;99.90
9209;DHT22;4639;48.862;9.188;2024-03-22T15:09:38;19.00;99.90
9209;DHT22;4639;48.862;9.188;2024-03-22T15:12:04;18.80;99.90
9209;DHT22;4639;48.862;9.188;2024-03-22T15:14:30;18.70;99.90
9209;DHT22;4639;48.862;9.188;2024-03-22T15:16:56;18.70;99.90
9209;DHT22;4639;48.862;9.188;2024-03-22T15:19:22;18.70;99.90
9209;DHT22;4639;48.862;9.188;2024-03-22T15:21:48;18.80;99.90
9209;DHT22;4639;48.862;9.188;2024-03-22T15:24:14;18.80;99.90
9209;DHT22;4639;48.862;9.188;2024-03-22T15:26:40;18.80;99.90
9209;DHT22;4639;48.862;9.188;2024-03-22T15:29:05;18.90;99.90
9209;DHT22;4639;48.862;9.188;2024-03-22T15:31:31;18.90;99.90
9209;DHT22;4639;48.862;9.188;2024-03-22T15:33:57;18.80;99.90
9209;DHT22;4639;48.862;9.188;2024-03-22T15:36:22;18.80;99.90
9209;DHT22;4639;48.862;9.188;2024-03-22T15:38:48;18.70;99.90
9209;DHT22;4639;48.862;9.188;2024-03-22T15:41:13;18.70;99.90
9209;DHT22;4639;48.862;9.188;2024-03-22T15:43:44;18.80;99.90
9209;DHT22;4639;48.862;9.188;2024-03-22T15:46:09;18.70;99.90
9209;DHT22;4639;48.862;9.188;2024-03-22T15:48:35;18.70;99.90
9209;DHT22;4639;48.862;9.188;2024-03-22T15:51:01;18.70;99.90
9209;DHT22;4639;48.862;9.188;2024-03-22T15:53:29;18.70;99.90
9209;DHT22;4639;48.862;9.188;2024-03-22T15:55:55;18.80;99.90
9209;DHT22;4639;48.862;9.188;2024-03-22T15:58:21;18.80;99.90
9209;DHT22;4639;48.862;9.188;2024-03-22T16:00:50;18.80;99.90